Terminal Aerodrome Forecast
Issued by NWS Melbourne, FL

Home | Current Version | Previous Version | Text Only | Print | Product List | Glossary On
Versions: 1 2 3 4 5 6 7 8 9 10 11 12 13 14 15 16 17 18 19 20 21 22
807
FTUS42 KMLB 302338
TAFVRB
TAF
KVRB 302338Z 0100/0124 13016G23KT P6SM SCT025 SCT250
     FM010400 13011KT P6SM VCSH SCT020
     FM011300 15014G22KT P6SM SCT025
     FM011600 15017G26KT P6SM SCT035=

USA.gov is the U.S. government's official web portal to all federal, state and local government web resources and services.